• Join FlightAware (Why Join?)
  • Login
  • US Flag 
08:38PM EDT


 

Airport Tracker/Info


-or-


 

Live Flight TrackerFlight Track Log ✈ N724AE ✈ 08-Apr-2013 ✈ KCVG - KDFW

Flight Track Log - Related Links

Times and Time Zones

All times are in EDT time to prevent confusion due to time zone crossing. See the N724AE flight status page for this flight to view local times or setup timezone preferences in your user account.

Time Position Orientation Groundspeed Altitude Reporting Facility
EDT Latitude Longitude Course Direction KTS MPH feet Rate Location/Type
01:03PM 39.0333 -84.6667 208° Southwest 163 188 1,400  Level Cincinnati TRACON
01:04PM 38.9667 -84.6833 191° South 191 220 4,800 2,640 Climbing Cincinnati TRACON
01:05PM 38.7907 -84.7528 210° Southwest  Level FlightAware Approximate
01:06PM 38.7130 -84.8111 210° Southwest  Level FlightAware Approximate
01:06PM 38.8917 -84.7281 205° Southwest 196 226 9,500  Level Indianapolis Center
01:07PM 38.6339 -84.8663 208° Southwest  Level FlightAware Approximate
01:07PM 38.8328 -84.7642 206° Southwest 231 266 10,200  Level Indianapolis Center
01:08PM 38.5540 -84.9196 208° Southwest  Level FlightAware Approximate
01:08PM 38.7514 -84.8153 206° Southwest 317 365 10,600  Level Indianapolis Center
01:09PM 38.6636 -84.8672 205° Southwest 339 390 11,900 1,200 Climbing Indianapolis Center
01:10PM 38.5728 -84.9225 205° Southwest 352 405 13,100 1,200 Climbing Indianapolis Center
01:11PM 38.4653 -84.9869 205° Southwest 364 419 14,500 1,260 Climbing Indianapolis Center
01:12PM 38.3689 -85.0358 202° Southwest 370 426 15,800 1,200 Climbing Indianapolis Center
01:13PM 38.3006 -85.1222 225° Southwest 353 406 17,000 1,200 Climbing Indianapolis Center
01:14PM 38.2508 -85.2381 241° Southwest 361 415 18,300 1,140 Climbing Indianapolis Center
01:15PM 38.2028 -85.3497 241° Southwest 358 412 19,400 1,020 Climbing Indianapolis Center
01:16PM 38.1522 -85.4653 241° Southwest 370 426 20,500 1,020 Climbing Indianapolis Center
01:17PM 38.1017 -85.5819 241° Southwest 374 430 21,500 960 Climbing Indianapolis Center
01:18PM 38.0461 -85.7006 239° Southwest 384 442 22,500 960 Climbing Indianapolis Center
01:19PM 37.9911 -85.8175 239° Southwest 385 443 23,500 1,020 Climbing Indianapolis Center
01:20PM 37.9347 -85.9364 239° Southwest 390 449 24,600 1,020 Climbing Indianapolis Center
01:21PM 37.8792 -86.0528 239° Southwest 385 443 25,600 1,020 Climbing Indianapolis Center
01:22PM 37.8122 -86.1911 239° Southwest 383 441 26,800 1,020 Climbing Indianapolis Center
01:23PM 37.7650 -86.2908 239° Southwest 379 436 27,700 1,020 Climbing Indianapolis Center
01:24PM 37.7019 -86.4208 239° Southwest 372 428 28,900 1,080 Climbing Indianapolis Center
01:25PM 37.6478 -86.5336 239° Southwest 371 427 30,000 1,020 Climbing Indianapolis Center
01:26PM 37.5961 -86.6403 239° Southwest 368 423 31,000 960 Climbing Indianapolis Center
01:27PM 37.5414 -86.7522 238° Southwest 371 427 32,000 1,020 Climbing Indianapolis Center
01:28PM 37.4850 -86.8686 239° Southwest 373 429 33,100 1,020 Climbing Indianapolis Center
01:29PM 37.4306 -86.9786 238° Southwest 370 426 34,100 1,080 Climbing Indianapolis Center
01:30PM 37.3767 -87.0903 239° Southwest 371 427 35,400 900 Climbing Indianapolis Center
01:31PM 37.3189 -87.2064 238° Southwest 373 429 36,000 300 Climbing Memphis Center
01:32PM 37.2653 -87.3156 238° Southwest 378 435 36,000  Level Memphis Center
01:33PM 37.2139 -87.4242 239° Southwest 378 435 36,000  Level Memphis Center
01:34PM 37.1561 -87.5356 237° Southwest 378 435 36,000  Level Memphis Center
01:35PM 37.1022 -87.6442 238° Southwest 378 435 36,000  Level Memphis Center
01:36PM 37.0461 -87.7553 238° Southwest 378 435 36,000  Level Memphis Center
01:37PM 36.9942 -87.8633 239° Southwest 378 435 36,000  Level Memphis Center
01:38PM 36.9403 -87.9717 238° Southwest 378 435 36,000  Level Memphis Center
01:39PM 36.8839 -88.0769 236° Southwest 373 429 36,000  Level Memphis Center
01:40PM 36.8397 -88.1717 240° Southwest 368 423 36,000  Level Memphis Center
01:41PM 36.7831 -88.2819 237° Southwest 368 423 36,000  Level Memphis Center
01:42PM 36.7267 -88.3894 237° Southwest 368 423 36,000  Level Memphis Center
01:43PM 36.6719 -88.4994 238° Southwest 368 423 36,000  Level Memphis Center
01:44PM 36.6172 -88.6067 238° Southwest 368 423 36,000  Level Memphis Center
01:45PM 36.5603 -88.7139 237° Southwest 373 429 36,000  Level Memphis Center
01:46PM 36.4972 -88.8314 236° Southwest 373 429 36,000  Level Memphis Center
01:47PM 36.4422 -88.9408 238° Southwest 378 435 36,000  Level Memphis Center
01:48PM 36.3850 -89.0447 236° Southwest 378 435 36,000  Level Memphis Center
01:49PM 36.3236 -89.1539 235° Southwest 378 435 36,000  Level Memphis Center
01:50PM 36.2642 -89.2681 237° Southwest 384 442 36,000  Level Memphis Center
01:51PM 36.2047 -89.3822 237° Southwest 389 448 36,000  Level Memphis Center
01:52PM 36.1492 -89.4908 238° Southwest 395 455 36,000  Level Memphis Center
01:53PM 36.0936 -89.5992 238° Southwest 395 455 36,000  Level Memphis Center
01:54PM 36.0422 -89.6972 237° Southwest 395 455 36,000  Level Memphis Center
01:55PM 35.9842 -89.8056 237° Southwest 395 455 36,000  Level Memphis Center
01:56PM 35.9242 -89.9161 236° Southwest 395 455 36,000  Level Memphis Center
01:57PM 35.8661 -90.0239 236° Southwest 395 455 36,000  Level Memphis Center
01:58PM 35.8103 -90.1317 237° Southwest 395 455 36,000  Level Memphis Center
01:59PM 35.7519 -90.2419 237° Southwest 395 455 36,000  Level Memphis Center
02:00PM 35.6894 -90.3494 234° Southwest 395 455 36,000  Level Memphis Center
02:01PM 35.6436 -90.4567 242° Southwest 374 430 36,000  Level Memphis Center
02:02PM 35.5975 -90.5742 244° Southwest 382 440 36,000  Level Memphis Center
02:03PM 35.5492 -90.6914 243° Southwest 382 440 36,000  Level Memphis Center
02:04PM 35.5008 -90.8058 243° Southwest 388 447 36,000  Level Memphis Center
02:05PM 35.4503 -90.9253 243° Southwest 388 447 36,000  Level Memphis Center
02:06PM 35.4019 -91.0397 243° Southwest 381 438 36,000  Level Memphis Center
02:07PM 35.3489 -91.1667 243° Southwest 381 438 36,000  Level Memphis Center
02:08PM 35.2981 -91.2831 242° Southwest 381 438 36,000  Level Memphis Center
02:09PM 35.2472 -91.4019 242° Southwest 387 445 36,000  Level Memphis Center
02:10PM 35.1981 -91.5158 242° Southwest 387 445 36,000  Level Memphis Center
02:11PM 35.1469 -91.6344 242° Southwest 392 451 36,000  Level Memphis Center
02:12PM 35.0997 -91.7506 244° Southwest 392 451 36,000  Level Memphis Center
02:13PM 35.0506 -91.8639 242° Southwest 387 445 36,000  Level Memphis Center
02:14PM 34.9989 -91.9819 242° Southwest 387 445 36,000  Level Memphis Center
02:15PM 34.9472 -92.1000 242° Southwest 387 445 36,000  Level Memphis Center
02:16PM 34.8975 -92.2156 242° Southwest 387 445 36,000  Level Memphis Center
02:17PM 34.8456 -92.3358 242° Southwest 387 445 36,000  Level Memphis Center
02:18PM 34.7958 -92.4486 242° Southwest 387 445 36,000  Level Memphis Center
02:19PM 34.7439 -92.5661 242° Southwest 387 445 36,000  Level Memphis Center
02:20PM 34.6939 -92.6783 242° Southwest 387 445 36,000  Level Memphis Center
02:21PM 34.6481 -92.7806 241° Southwest 387 445 36,000  Level Memphis Center
02:22PM 34.5978 -92.8928 241° Southwest 387 445 36,000  Level Memphis Center
02:23PM 34.5472 -93.0122 243° Southwest 392 451 36,000  Level Memphis Center
02:24PM 34.4947 -93.1242 240° Southwest 392 451 36,000  Level Memphis Center
02:25PM 34.4422 -93.2383 241° Southwest 386 444 36,000  Level Memphis Center
02:28PM 34.3239 -93.5208 243° Southwest 391 450 36,000  Level Fort Worth Center
02:29PM 34.2858 -93.6433 249° West 397 457 36,000  Level Fort Worth Center
02:30PM 34.2539 -93.7678 253° West 397 457 36,000  Level Fort Worth Center
02:31PM 34.2178 -93.8922 251° West 392 451 36,000  Level Fort Worth Center
02:32PM 34.1839 -94.0167 252° West 392 451 36,000  Level Fort Worth Center
02:33PM 34.1475 -94.1411 251° West 392 451 36,000  Level Fort Worth Center
02:34PM 34.1131 -94.2653 252° West 392 451 36,000 -300 Level Fort Worth Center
02:35PM 34.0806 -94.3844 252° West 392 451 35,500 -780 Descending Fort Worth Center
02:36PM 34.0439 -94.5083 250° West 392 451 34,500 -1,440 Descending Fort Worth Center
02:37PM 34.0092 -94.6322 251° West 392 451 32,700 -2,340 Descending Fort Worth Center
02:38PM 33.9722 -94.7589 251° West 392 451 29,900 -2,940 Descending Fort Worth Center
02:39PM 33.9350 -94.8875 251° West 397 457 26,900 -2,760 Descending Fort Worth Center
02:40PM 33.8958 -95.0189 250° West 411 473 24,400 -1,500 Descending Fort Worth Center
02:41PM 33.8586 -95.1475 251° West 411 473 24,000 -240 Descending Fort Worth Center
02:42PM 33.8214 -95.2733 250° West 406 467 24,000  Level Fort Worth Center
02:43PM 33.7858 -95.3967 251° West 406 467 24,000 -660 Level Fort Worth Center
02:44PM 33.7481 -95.5225 250° West 406 467 22,700 -1,740 Descending Fort Worth Center
02:45PM 33.7083 -95.6581 251° West 406 467 20,600 -2,100 Descending Fort Worth Center
02:46PM 33.6744 -95.7786 251° West 394 453 18,500 -2,220 Descending Fort Worth Center
02:47PM 33.6383 -95.8992 250° West 387 445 16,200 -2,040 Descending Fort Worth Center
02:48PM 33.6042 -96.0119 250° West 375 432 14,500 -1,500 Descending Fort Worth Center
02:49PM 33.5719 -96.1147 249° West 370 426 13,200 -1,320 Descending Fort Worth Center
02:50PM 33.5314 -96.2397 249° West 375 432 11,900 -1,140 Descending Fort Worth Center
02:51PM 33.4797 -96.3053 227° Southwest 332 382 11,000 -480 Descending Fort Worth Center
02:52PM 33.4197 -96.3756 224° Southwest 288 331 11,000  Level Fort Worth Center
02:53PM 33.3703 -96.4333 224° Southwest 278 320 11,000 -1,200 Level Fort Worth Center
02:54PM 33.3164 -96.5061 228° Southwest 273 314 8,700 -2,100 Descending Fort Worth Center
02:55PM 33.3025 -96.5958 260° West 268 308 6,800 -1,740 Descending Fort Worth Center
02:56PM 33.2883 -96.6703 257° West 268 308 5,300 -900 Descending Fort Worth Center
02:57PM 33.2764 -96.7625 261° West 258 297 5,000 -180 Descending Fort Worth Center
02:58PM 33.2433 -96.8197 235° Southwest 243 280 5,000  Level Fort Worth Center
02:59PM 33.2017 -96.8919 235° Southwest 262 302 5,000  Level Fort Worth Center
03:00PM 33.1583 -96.9692 236° Southwest 267 307 5,000 -360 Level Fort Worth Center
03:01PM 33.1167 -97.0142 222° Southwest 244 281 4,300 -900 Descending Fort Worth Center
03:02PM 33.0625 -97.0267 191° South 195 224 3,300 -900 Descending Fort Worth Center
03:03PM 33.0186 -97.0269 180° South 170 196 2,500 -840 Descending Fort Worth Center